Lookout, Kentucky
Current Conditions -  °F | °C
As of 8:55 PM on Thursday 18 Dec 2014 (Local Time) from KPBX Reporting Station
Overcast Overcast  
Wind Chill: 31°   Ceiling: 8500
Heat Index: 31°   Visibility: 10mi
Dew Point: 25°   Wind: 0mph
Humidity: 77%   Direction: NA
Pressure: 30.16"   Gusts: NA
Location:  37.31°N, 82.47°W
Report Text: KPBX 190155Z AUTO 00000KT 10SM OVC085 00/M04 A3016 RMK AO2 T10051040
Loading
Personal Weather Stations






























Interactive Weather Map New forecast layout! Learn more

10-Day Weather Forecast

Advertisements
Track Severe Weather on mobile